Time;durP1;ratioP1;P1;durP2;ratioP2;P2;SDS_P1;SDS_P2;PMS_P1;PMS_P2;Temp;Humidity;BMP_temperature;BMP_pressure;BME280_temperature;BME280_humidity;BME280_pressure;Samples;Min_cycle;Max_cycle;Signal;HPM_P1;HPM_P2
2023/06/27 00:00:34;;;;;;;13.02;2.65;;;;;;;;;;4939808;28;20045;-68
2023/06/27 00:02:59;;;;;;;12.15;3.22;;;;;;;;;;4942029;28;20496;-68
2023/06/27 00:05:26;;;;;;;10.27;2.53;;;;;;;;;;4928156;28;20511;-69
2023/06/27 00:07:51;;;;;;;17.40;2.80;;;;;;;;;;4921227;28;20050;-70
2023/06/27 00:10:16;;;;;;;10.60;2.10;;;;;;;;;;4941866;28;20038;-69
2023/06/27 00:12:44;;;;;;;7.35;2.60;;;;;;;;;;4927149;28;20046;-69
2023/06/27 00:15:09;;;;;;;11.63;2.70;;;;;;;;;;4941831;28;20093;-69
2023/06/27 00:17:35;;;;;;;10.75;2.10;;;;;;;;;;4924416;28;20043;-69
2023/06/27 00:20:01;;;;;;;9.27;2.33;;;;;;;;;;4943082;28;20045;-69
2023/06/27 00:22:27;;;;;;;8.27;2.17;;;;;;;;;;4941252;28;20038;-69
2023/06/27 00:24:53;;;;;;;10.60;2.55;;;;;;;;;;4936412;28;20039;-69
2023/06/27 00:27:18;;;;;;;9.15;2.53;;;;;;;;;;4940897;28;20039;-69
2023/06/27 00:29:44;;;;;;;13.93;2.58;;;;;;;;;;4936648;28;20045;-68
2023/06/27 00:32:09;;;;;;;12.65;2.13;;;;;;;;;;4941148;28;20261;-68
2023/06/27 00:34:34;;;;;;;7.45;2.05;;;;;;;;;;4926828;28;20043;-69
2023/06/27 00:37:00;;;;;;;5.43;1.85;;;;;;;;;;4941440;28;20253;-70
2023/06/27 00:39:25;;;;;;;8.57;2.28;;;;;;;;;;4944678;28;20109;-70
2023/06/27 00:41:53;;;;;;;7.82;1.92;;;;;;;;;;4921323;28;20042;-70
2023/06/27 00:44:19;;;;;;;8.63;1.92;;;;;;;;;;4941416;28;20031;-68
2023/06/27 00:46:46;;;;;;;6.78;1.90;;;;;;;;;;4942281;28;20057;-68
2023/06/27 00:49:11;;;;;;;12.85;1.98;;;;;;;;;;4941801;28;20045;-68
2023/06/27 00:51:38;;;;;;;6.90;1.70;;;;;;;;;;4941792;28;20031;-69
2023/06/27 00:54:03;;;;;;;7.32;1.77;;;;;;;;;;4943321;28;20614;-69
2023/06/27 00:56:29;;;;;;;5.55;1.60;;;;;;;;;;4919962;28;20028;-69
2023/06/27 00:58:54;;;;;;;6.10;1.50;;;;;;;;;;4919477;28;20054;-69
2023/06/27 01:01:20;;;;;;;7.85;1.45;;;;;;;;;;4942819;28;20035;-68
2023/06/27 01:03:45;;;;;;;4.70;1.20;;;;;;;;;;4939987;28;20042;-68
2023/06/27 01:06:30;;;;;;;4.63;1.20;;;;;;;;;;4940353;28;20125;-68
2023/06/27 01:09:04;;;;;;;5.10;1.30;;;;;;;;;;4940950;28;20043;-68
2023/06/27 01:11:35;;;;;;;9.57;1.45;;;;;;;;;;4925759;28;20030;-68
2023/06/27 01:14:02;;;;;;;7.55;1.50;;;;;;;;;;4940950;28;20138;-68
2023/06/27 01:16:29;;;;;;;5.32;1.48;;;;;;;;;;4917802;28;20039;-68
2023/06/27 01:18:57;;;;;;;5.07;1.50;;;;;;;;;;4938326;28;20085;-69
2023/06/27 01:21:24;;;;;;;5.72;1.63;;;;;;;;;;4942372;28;22215;-70
2023/06/27 01:23:50;;;;;;;6.40;1.50;;;;;;;;;;4943315;28;20383;-68
2023/06/27 01:26:16;;;;;;;10.55;1.50;;;;;;;;;;4939838;28;20487;-68
2023/06/27 01:28:41;;;;;;;5.85;1.65;;;;;;;;;;4923932;28;20109;-68
2023/06/27 01:31:06;;;;;;;4.32;1.23;;;;;;;;;;4940880;28;20046;-67
2023/06/27 01:33:32;;;;;;;7.38;1.40;;;;;;;;;;4944639;28;20124;-70
2023/06/27 01:36:09;;;;;;;6.63;1.30;;;;;;;;;;4940158;28;20043;-69
2023/06/27 01:38:37;;;;;;;4.55;1.35;;;;;;;;;;4943257;28;20050;-69
2023/06/27 01:41:02;;;;;;;6.47;1.48;;;;;;;;;;4942895;28;20487;-68
2023/06/27 01:43:28;;;;;;;5.47;1.30;;;;;;;;;;4943630;28;20089;-69
2023/06/27 01:45:54;;;;;;;6.90;1.33;;;;;;;;;;4942011;28;20038;-67
2023/06/27 01:48:20;;;;;;;7.93;1.67;;;;;;;;;;4900646;29;20046;-67
2023/06/27 01:50:46;;;;;;;5.88;1.38;;;;;;;;;;4917988;28;20051;-68
2023/06/27 01:53:11;;;;;;;8.20;1.52;;;;;;;;;;4915258;28;20043;-68
2023/06/27 01:55:36;;;;;;;4.40;1.50;;;;;;;;;;4900577;29;20040;-67
2023/06/27 01:58:02;;;;;;;7.30;1.90;;;;;;;;;;4917614;28;20055;-69
2023/06/27 02:00:27;;;;;;;6.45;1.70;;;;;;;;;;4917187;28;20164;-67
2023/06/27 02:02:55;;;;;;;5.82;1.60;;;;;;;;;;4915721;29;20123;-68
2023/06/27 02:05:20;;;;;;;9.38;1.75;;;;;;;;;;4918622;28;20050;-67
2023/06/27 02:07:45;;;;;;;8.82;1.70;;;;;;;;;;4922773;28;20047;-68
2023/06/27 02:10:11;;;;;;;9.38;1.63;;;;;;;;;;4921347;28;20050;-68
2023/06/27 02:12:36;;;;;;;5.13;1.50;;;;;;;;;;4919345;28;20429;-68
2023/06/27 02:15:01;;;;;;;7.18;1.50;;;;;;;;;;4919771;28;20040;-69
2023/06/27 02:17:27;;;;;;;6.47;1.40;;;;;;;;;;4920076;28;20634;-68
2023/06/27 02:19:52;;;;;;;6.15;1.40;;;;;;;;;;4920012;28;20039;-68
2023/06/27 02:22:20;;;;;;;5.13;1.50;;;;;;;;;;4920552;28;20035;-69
2023/06/27 02:24:45;;;;;;;4.82;1.50;;;;;;;;;;4919207;28;20620;-69
2023/06/27 02:27:12;;;;;;;4.70;1.58;;;;;;;;;;4917657;28;20126;-68
2023/06/27 02:29:38;;;;;;;7.13;1.70;;;;;;;;;;4919605;28;20131;-67
2023/06/27 02:32:03;;;;;;;6.18;1.27;;;;;;;;;;4917802;28;20713;-68
2023/06/27 02:34:28;;;;;;;6.65;1.67;;;;;;;;;;4917963;28;20036;-66
2023/06/27 02:36:54;;;;;;;5.47;1.45;;;;;;;;;;4917592;28;20031;-70
2023/06/27 02:39:19;;;;;;;8.40;1.65;;;;;;;;;;4918362;28;20090;-65
2023/06/27 02:41:44;;;;;;;5.07;1.30;;;;;;;;;;4917673;28;20032;-67
2023/06/27 02:44:09;;;;;;;7.18;1.40;;;;;;;;;;4919590;28;20028;-68
2023/06/27 02:46:35;;;;;;;4.07;1.30;;;;;;;;;;4916059;28;20464;-68
2023/06/27 02:49:00;;;;;;;7.97;1.35;;;;;;;;;;4937715;28;20053;-68
2023/06/27 02:51:25;;;;;;;9.57;1.67;;;;;;;;;;4942476;28;20061;-67
2023/06/27 02:53:51;;;;;;;5.22;1.70;;;;;;;;;;4921197;28;20031;-69
2023/06/27 02:56:16;;;;;;;4.78;1.48;;;;;;;;;;4942755;28;20046;-68
2023/06/27 02:58:41;;;;;;;4.07;1.52;;;;;;;;;;4944143;28;20051;-67
2023/06/27 03:01:09;;;;;;;10.05;1.67;;;;;;;;;;4941772;28;20053;-67
2023/06/27 03:03:34;;;;;;;4.97;1.35;;;;;;;;;;4942326;28;20723;-67
2023/06/27 03:06:03;;;;;;;7.82;1.58;;;;;;;;;;4941497;28;20050;-69
2023/06/27 03:08:30;;;;;;;9.23;1.70;;;;;;;;;;4941548;28;20059;-68
2023/06/27 03:10:56;;;;;;;6.53;1.58;;;;;;;;;;4943571;28;21885;-69
2023/06/27 03:13:21;;;;;;;5.45;1.42;;;;;;;;;;4934673;28;20098;-69
2023/06/27 03:15:46;;;;;;;8.55;1.77;;;;;;;;;;4942690;28;20036;-68
2023/06/27 03:18:12;;;;;;;8.93;1.58;;;;;;;;;;4937288;28;20047;-69
2023/06/27 03:20:40;;;;;;;6.43;1.75;;;;;;;;;;4943602;28;20646;-67
2023/06/27 03:23:07;;;;;;;6.13;1.52;;;;;;;;;;4942051;28;20049;-69
2023/06/27 03:25:33;;;;;;;5.47;1.30;;;;;;;;;;4905878;28;20125;-70
2023/06/27 03:27:59;;;;;;;7.57;1.52;;;;;;;;;;4940048;28;20034;-69
2023/06/27 03:30:24;;;;;;;5.97;1.60;;;;;;;;;;4942510;28;20035;-69
2023/06/27 03:32:50;;;;;;;7.75;1.90;;;;;;;;;;4919721;28;20039;-68
2023/06/27 03:35:15;;;;;;;9.90;1.67;;;;;;;;;;4942777;28;20058;-68
2023/06/27 03:37:41;;;;;;;6.38;1.67;;;;;;;;;;4942070;28;20046;-70
2023/06/27 03:40:06;;;;;;;6.85;1.42;;;;;;;;;;4942895;28;20049;-67
2023/06/27 03:42:32;;;;;;;3.83;1.50;;;;;;;;;;4942744;28;20035;-69
2023/06/27 03:44:57;;;;;;;6.13;1.60;;;;;;;;;;4944109;28;21123;-68
2023/06/27 03:47:23;;;;;;;7.43;1.50;;;;;;;;;;4939305;28;20043;-67
2023/06/27 03:49:48;;;;;;;7.22;1.58;;;;;;;;;;4942883;28;22650;-68
2023/06/27 03:52:16;;;;;;;6.32;1.73;;;;;;;;;;4923105;28;20054;-69
2023/06/27 03:54:41;;;;;;;8.77;1.73;;;;;;;;;;4941278;28;20149;-69
2023/06/27 03:57:07;;;;;;;6.45;1.58;;;;;;;;;;4939228;28;20051;-70
2023/06/27 03:59:32;;;;;;;6.70;1.98;;;;;;;;;;4918050;28;20050;-68
2023/06/27 04:01:58;;;;;;;6.13;1.52;;;;;;;;;;4942710;28;20032;-69
2023/06/27 04:04:23;;;;;;;7.55;2.03;;;;;;;;;;4938439;28;20050;-69
2023/06/27 04:06:48;;;;;;;8.60;2.00;;;;;;;;;;4939513;28;20927;-70
2023/06/27 04:09:14;;;;;;;5.53;1.67;;;;;;;;;;4940045;28;20084;-70
2023/06/27 04:11:39;;;;;;;8.30;1.80;;;;;;;;;;4937271;28;20065;-69
2023/06/27 04:14:04;;;;;;;6.07;1.63;;;;;;;;;;4940983;28;20059;-68
2023/06/27 04:16:30;;;;;;;9.38;1.77;;;;;;;;;;4938316;28;20113;-67
2023/06/27 04:18:55;;;;;;;4.65;1.70;;;;;;;;;;4939076;28;20054;-68
2023/06/27 04:21:23;;;;;;;6.03;1.80;;;;;;;;;;4921873;28;21012;-67
2023/06/27 04:23:50;;;;;;;3.47;1.40;;;;;;;;;;4939027;28;20042;-67
2023/06/27 04:26:15;;;;;;;7.63;1.75;;;;;;;;;;4940105;28;20042;-68
2023/06/27 04:28:43;;;;;;;4.80;1.50;;;;;;;;;;4938305;28;20082;-68
2023/06/27 04:31:08;;;;;;;8.32;2.03;;;;;;;;;;4941021;28;20515;-70
2023/06/27 04:33:39;;;;;;;6.20;1.80;;;;;;;;;;4939587;28;20053;-69
2023/06/27 04:36:04;;;;;;;8.30;2.10;;;;;;;;;;4939175;28;20043;-69
2023/06/27 04:38:30;;;;;;;6.03;1.98;;;;;;;;;;4917683;28;20051;-68
2023/06/27 04:40:55;;;;;;;4.65;1.75;;;;;;;;;;4939548;28;20043;-69
2023/06/27 04:43:21;;;;;;;6.20;1.48;;;;;;;;;;4918156;28;20035;-67
2023/06/27 04:45:46;;;;;;;5.78;1.80;;;;;;;;;;4941213;28;20163;-69
2023/06/27 04:48:12;;;;;;;5.18;1.45;;;;;;;;;;4939910;28;20039;-69
2023/06/27 04:50:37;;;;;;;9.10;1.50;;;;;;;;;;4938120;28;20122;-67
2023/06/27 04:53:05;;;;;;;6.97;1.30;;;;;;;;;;4938252;28;20038;-67
2023/06/27 04:55:31;;;;;;;7.32;1.60;;;;;;;;;;4938886;28;20577;-67
2023/06/27 04:57:59;;;;;;;7.90;1.77;;;;;;;;;;4918595;28;20070;-70
2023/06/27 05:00:25;;;;;;;7.03;1.67;;;;;;;;;;4940817;28;20046;-71
2023/06/27 05:02:50;;;;;;;6.95;1.65;;;;;;;;;;4935137;28;20042;-68
2023/06/27 05:05:16;;;;;;;8.90;1.65;;;;;;;;;;4908159;28;20038;-67
2023/06/27 05:07:41;;;;;;;8.32;1.42;;;;;;;;;;4941406;28;20803;-69
2023/06/27 05:10:07;;;;;;;5.05;1.20;;;;;;;;;;4923650;28;20081;-69
2023/06/27 05:12:33;;;;;;;7.75;1.40;;;;;;;;;;4920526;28;20042;-68
2023/06/27 05:14:58;;;;;;;6.57;1.40;;;;;;;;;;4923368;28;20042;-67
2023/06/27 05:17:23;;;;;;;10.35;1.92;;;;;;;;;;4940247;28;20522;-67
2023/06/27 05:19:48;;;;;;;7.80;1.50;;;;;;;;;;4938851;28;20053;-68
2023/06/27 05:22:14;;;;;;;8.05;1.83;;;;;;;;;;4936529;28;20061;-67
2023/06/27 05:24:39;;;;;;;7.20;1.30;;;;;;;;;;4916143;28;20062;-67
2023/06/27 05:27:05;;;;;;;6.82;1.40;;;;;;;;;;4917310;28;20046;-67
2023/06/27 05:29:30;;;;;;;6.55;1.50;;;;;;;;;;4938468;28;20046;-66
2023/06/27 05:31:55;;;;;;;12.57;1.65;;;;;;;;;;4938952;28;20157;-67
2023/06/27 05:34:21;;;;;;;5.50;1.45;;;;;;;;;;4939511;28;20106;-66
2023/06/27 05:36:46;;;;;;;6.35;1.40;;;;;;;;;;4940480;28;20039;-66
2023/06/27 05:39:11;;;;;;;6.53;1.70;;;;;;;;;;4938353;28;20953;-68
2023/06/27 05:41:36;;;;;;;11.20;1.83;;;;;;;;;;4939244;28;20062;-69
2023/06/27 05:44:02;;;;;;;6.80;1.38;;;;;;;;;;4939449;28;20043;-68
2023/06/27 05:46:34;;;;;;;8.95;1.35;;;;;;;;;;4904577;28;20039;-67
2023/06/27 05:49:00;;;;;;;6.43;1.48;;;;;;;;;;4918382;28;20046;-66
2023/06/27 05:51:25;;;;;;;7.00;1.58;;;;;;;;;;4940515;28;20039;-68
2023/06/27 05:53:50;;;;;;;8.10;1.40;;;;;;;;;;4942133;28;20098;-67
2023/06/27 05:56:15;;;;;;;9.15;1.60;;;;;;;;;;4937286;28;20042;-68
2023/06/27 05:58:41;;;;;;;8.65;1.63;;;;;;;;;;4921070;28;20047;-67
2023/06/27 06:01:06;;;;;;;6.70;1.23;;;;;;;;;;4936110;28;20035;-66
2023/06/27 06:03:32;;;;;;;7.43;1.25;;;;;;;;;;4937670;28;20057;-67
2023/06/27 06:05:57;;;;;;;6.38;1.48;;;;;;;;;;4937905;28;20035;-67
2023/06/27 06:08:23;;;;;;;6.47;1.40;;;;;;;;;;4940380;28;20042;-66
2023/06/27 06:10:50;;;;;;;6.65;1.48;;;;;;;;;;4940968;28;20037;-66
2023/06/27 06:13:16;;;;;;;7.18;1.40;;;;;;;;;;4939248;28;20039;-66
2023/06/27 06:15:41;;;;;;;7.80;1.55;;;;;;;;;;4938147;28;20038;-65
2023/06/27 06:18:06;;;;;;;4.82;1.25;;;;;;;;;;4938196;28;20069;-67
2023/06/27 06:20:34;;;;;;;5.80;1.70;;;;;;;;;;4939317;28;20094;-65
2023/06/27 06:23:01;;;;;;;8.35;1.63;;;;;;;;;;4940838;28;20026;-64
2023/06/27 06:25:29;;;;;;;7.82;1.85;;;;;;;;;;4916538;28;20070;-66
2023/06/27 06:27:54;;;;;;;8.07;1.80;;;;;;;;;;4937398;28;20038;-66
2023/06/27 06:30:19;;;;;;;6.50;1.42;;;;;;;;;;4938321;28;20051;-66
2023/06/27 06:32:45;;;;;;;5.38;1.50;;;;;;;;;;4923544;28;20760;-67
2023/06/27 06:35:10;;;;;;;6.57;1.77;;;;;;;;;;4939704;28;20039;-67
2023/06/27 06:37:36;;;;;;;5.40;1.30;;;;;;;;;;4937423;28;20050;-69
2023/06/27 06:40:02;;;;;;;6.13;1.30;;;;;;;;;;4938057;28;20061;-66
2023/06/27 06:42:27;;;;;;;6.20;1.50;;;;;;;;;;4939147;28;20067;-66
2023/06/27 06:44:52;;;;;;;6.07;1.55;;;;;;;;;;4946357;28;20125;-67
2023/06/27 06:47:18;;;;;;;5.32;1.30;;;;;;;;;;4933366;28;20050;-68
2023/06/27 06:49:45;;;;;;;8.57;1.80;;;;;;;;;;4952965;28;20035;-65
2023/06/27 06:52:11;;;;;;;10.50;1.35;;;;;;;;;;4939520;28;20039;-68
2023/06/27 06:54:38;;;;;;;6.30;1.60;;;;;;;;;;4939599;28;20035;-67
2023/06/27 06:57:03;;;;;;;9.00;1.63;;;;;;;;;;4944648;28;22425;-68
2023/06/27 06:59:28;;;;;;;4.78;1.50;;;;;;;;;;4942060;28;20043;-69
2023/06/27 07:01:54;;;;;;;6.38;1.27;;;;;;;;;;4919999;28;20126;-68
2023/06/27 07:04:19;;;;;;;7.13;1.63;;;;;;;;;;4936848;28;20027;-68
2023/06/27 07:06:44;;;;;;;6.13;1.27;;;;;;;;;;4943959;28;20649;-66
2023/06/27 07:09:12;;;;;;;9.07;1.60;;;;;;;;;;4942456;28;20610;-67
2023/06/27 07:11:39;;;;;;;7.30;1.48;;;;;;;;;;4943437;28;20034;-68
2023/06/27 07:14:04;;;;;;;10.55;1.35;;;;;;;;;;4944709;28;20034;-68
2023/06/27 07:16:30;;;;;;;7.03;1.52;;;;;;;;;;4920726;28;20080;-69
2023/06/27 07:18:57;;;;;;;7.65;1.67;;;;;;;;;;4942484;28;20943;-69
2023/06/27 07:21:23;;;;;;;3.83;1.17;;;;;;;;;;4941934;28;20038;-67
2023/06/27 07:23:48;;;;;;;4.97;1.20;;;;;;;;;;4940986;28;20971;-63
2023/06/27 07:26:13;;;;;;;6.00;1.35;;;;;;;;;;4942311;28;20035;-62
2023/06/27 07:28:39;;;;;;;6.78;1.55;;;;;;;;;;4943925;28;20082;-64
2023/06/27 07:31:04;;;;;;;5.90;1.45;;;;;;;;;;4940985;28;20031;-64
2023/06/27 07:33:29;;;;;;;5.68;1.17;;;;;;;;;;4942407;28;21073;-66
2023/06/27 07:35:54;;;;;;;4.50;1.30;;;;;;;;;;4926282;28;20053;-63
2023/06/27 07:38:20;;;;;;;8.88;1.60;;;;;;;;;;4943861;28;20801;-67
2023/06/27 07:40:45;;;;;;;8.95;1.60;;;;;;;;;;4943470;28;20046;-68
2023/06/27 07:43:10;;;;;;;6.72;1.50;;;;;;;;;;4941902;28;20043;-67
2023/06/27 07:45:35;;;;;;;4.43;1.10;;;;;;;;;;4918492;28;20146;-67
2023/06/27 07:48:03;;;;;;;4.68;1.35;;;;;;;;;;4921940;28;20051;-67
2023/06/27 07:50:28;;;;;;;5.18;1.33;;;;;;;;;;4938916;28;20674;-65
2023/06/27 07:52:54;;;;;;;7.68;1.60;;;;;;;;;;4940896;28;20127;-68
2023/06/27 07:55:19;;;;;;;9.48;1.55;;;;;;;;;;4939122;28;20050;-68
2023/06/27 07:57:44;;;;;;;6.60;1.30;;;;;;;;;;4917127;28;20047;-68
2023/06/27 08:00:11;;;;;;;6.30;1.38;;;;;;;;;;4938355;28;20050;-65
2023/06/27 08:02:36;;;;;;;7.15;1.50;;;;;;;;;;4939683;28;20032;-67
2023/06/27 08:05:02;;;;;;;7.07;1.35;;;;;;;;;;4940499;28;20038;-68
2023/06/27 08:07:27;;;;;;;6.88;1.40;;;;;;;;;;4940276;28;20045;-67
2023/06/27 08:09:52;;;;;;;6.50;1.42;;;;;;;;;;4940532;28;20039;-68
2023/06/27 08:12:18;;;;;;;6.32;1.40;;;;;;;;;;4941646;28;20089;-68
2023/06/27 08:14:45;;;;;;;6.47;1.55;;;;;;;;;;4942209;28;20047;-68
2023/06/27 08:17:10;;;;;;;4.72;1.27;;;;;;;;;;4920179;28;20051;-67
2023/06/27 08:19:36;;;;;;;7.80;1.23;;;;;;;;;;4939620;28;20535;-67
2023/06/27 08:22:02;;;;;;;5.10;1.15;;;;;;;;;;4939331;28;20051;-68
2023/06/27 08:24:28;;;;;;;6.22;1.63;;;;;;;;;;4941054;28;20118;-67
2023/06/27 08:26:55;;;;;;;4.57;1.40;;;;;;;;;;4940157;28;20045;-67
2023/06/27 08:29:21;;;;;;;7.00;1.30;;;;;;;;;;4938636;28;20040;-67
2023/06/27 08:31:46;;;;;;;8.45;1.60;;;;;;;;;;4939131;28;20125;-67
2023/06/27 08:34:12;;;;;;;10.88;1.63;;;;;;;;;;4939989;28;20383;-67
2023/06/27 08:36:37;;;;;;;4.68;1.20;;;;;;;;;;4941512;28;20039;-68
2023/06/27 08:39:03;;;;;;;6.40;1.40;;;;;;;;;;4941415;28;20168;-68
2023/06/27 08:41:29;;;;;;;9.90;1.60;;;;;;;;;;4941296;28;20038;-69
2023/06/27 08:43:56;;;;;;;10.05;2.13;;;;;;;;;;4940320;28;20097;-68
2023/06/27 08:46:22;;;;;;;6.80;1.50;;;;;;;;;;4939323;28;20122;-69
2023/06/27 08:48:47;;;;;;;5.97;1.50;;;;;;;;;;4942121;28;20057;-69
2023/06/27 08:51:14;;;;;;;7.63;1.60;;;;;;;;;;4942713;28;20043;-67
2023/06/27 08:53:42;;;;;;;7.25;1.60;;;;;;;;;;4941920;28;20724;-66
2023/06/27 08:56:10;;;;;;;8.07;1.63;;;;;;;;;;4931812;28;20043;-68
2023/06/27 08:58:41;;;;;;;8.27;1.65;;;;;;;;;;4939745;28;20063;-68
2023/06/27 09:01:06;;;;;;;;;;;;;;;;;;4940080;28;20047;-68
2023/06/27 09:03:33;;;;;;;4.80;1.50;;;;;;;;;;4942658;28;19948;-68
2023/06/27 09:05:58;;;;;;;6.35;1.60;;;;;;;;;;4940464;28;20294;-69
2023/06/27 09:08:24;;;;;;;9.07;1.67;;;;;;;;;;4942024;28;20046;-68
2023/06/27 09:10:49;;;;;;;5.43;1.48;;;;;;;;;;4917465;28;20046;-67
2023/06/27 09:13:16;;;;;;;7.72;1.50;;;;;;;;;;4920828;28;21176;-68
2023/06/27 09:15:41;;;;;;;6.68;1.42;;;;;;;;;;4915822;28;20046;-69
2023/06/27 09:18:06;;;;;;;8.30;1.50;;;;;;;;;;4941719;28;20133;-64
2023/06/27 09:20:32;;;;;;;6.55;1.52;;;;;;;;;;4940112;28;20035;-65
2023/06/27 09:22:58;;;;;;;7.72;1.95;;;;;;;;;;4937359;28;20039;-63
2023/06/27 09:25:24;;;;;;;9.52;1.42;;;;;;;;;;4937678;28;20038;-64
2023/06/27 09:27:49;;;;;;;6.63;1.55;;;;;;;;;;4918121;28;20685;-63
2023/06/27 09:30:14;;;;;;;10.18;1.70;;;;;;;;;;4938317;28;20108;-62
2023/06/27 09:32:59;;;;;;;8.13;1.50;;;;;;;;;;4936639;28;20110;-62
2023/06/27 09:35:25;;;;;;;7.32;1.67;;;;;;;;;;4935183;28;20066;-62
2023/06/27 09:38:04;;;;;;;5.15;1.60;;;;;;;;;;4903966;28;20043;-63
2023/06/27 09:40:29;;;;;;;5.55;1.45;;;;;;;;;;4937971;28;20130;-64
2023/06/27 09:42:55;;;;;;;7.80;1.85;;;;;;;;;;4937294;28;20053;-61
2023/06/27 09:45:22;;;;;;;6.07;1.80;;;;;;;;;;4920002;28;20118;-63
2023/06/27 09:47:48;;;;;;;5.97;1.60;;;;;;;;;;4939317;28;24483;-62
2023/06/27 09:50:16;;;;;;;8.07;1.60;;;;;;;;;;4940867;28;20174;-63
2023/06/27 09:53:03;;;;;;;7.68;1.70;;;;;;;;;;4940169;28;20039;-63
2023/06/27 09:55:28;;;;;;;6.80;1.40;;;;;;;;;;4940888;28;20117;-64
2023/06/27 09:57:54;;;;;;;8.57;1.40;;;;;;;;;;4939179;28;20416;-64
2023/06/27 10:00:20;;;;;;;7.93;1.63;;;;;;;;;;4919203;28;20052;-63
2023/06/27 10:02:54;;;;;;;10.40;1.55;;;;;;;;;;4938867;28;20034;-63
2023/06/27 10:05:20;;;;;;;5.03;1.73;;;;;;;;;;4938131;28;20096;-63
2023/06/27 10:07:47;;;;;;;7.00;1.55;;;;;;;;;;4938408;28;20035;-62
2023/06/27 10:10:13;;;;;;;4.75;1.40;;;;;;;;;;4936610;28;20118;-63
2023/06/27 10:12:39;;;;;;;7.20;1.52;;;;;;;;;;4939899;28;20039;-64
2023/06/27 10:15:04;;;;;;;7.30;1.52;;;;;;;;;;4935444;28;20050;-63
2023/06/27 10:17:30;;;;;;;4.53;1.30;;;;;;;;;;4937650;28;20717;-64
2023/06/27 10:19:55;;;;;;;7.97;1.70;;;;;;;;;;4938849;28;20118;-64
2023/06/27 10:22:26;;;;;;;7.28;1.42;;;;;;;;;;4920117;28;20039;-63
2023/06/27 10:24:53;;;;;;;9.20;1.60;;;;;;;;;;4935190;28;20113;-65
2023/06/27 10:27:20;;;;;;;7.90;1.55;;;;;;;;;;4938607;28;20038;-64
2023/06/27 10:29:45;;;;;;;7.30;1.70;;;;;;;;;;4923507;28;20027;-63
2023/06/27 10:32:11;;;;;;;7.13;1.60;;;;;;;;;;4920421;28;20039;-66
2023/06/27 10:34:43;;;;;;;9.18;1.50;;;;;;;;;;4941716;28;20031;-64
2023/06/27 10:37:14;;;;;;;8.43;1.80;;;;;;;;;;4935575;28;20783;-63
2023/06/27 10:39:41;;;;;;;6.47;1.67;;;;;;;;;;4940287;28;20035;-63
2023/06/27 10:42:15;;;;;;;7.47;1.92;;;;;;;;;;4940633;28;20041;-63
2023/06/27 10:44:59;;;;;;;8.93;2.00;;;;;;;;;;4941577;28;20081;-66
2023/06/27 10:47:24;;;;;;;10.05;1.90;;;;;;;;;;4922725;28;20046;-65
2023/06/27 10:49:52;;;;;;;9.10;1.88;;;;;;;;;;4941697;28;20779;-66
2023/06/27 10:52:23;;;;;;;9.02;2.22;;;;;;;;;;4939859;28;20042;-66
2023/06/27 10:54:49;;;;;;;;;;;;;;;;;;4940759;28;20192;-66
2023/06/27 10:57:17;;;;;;;9.60;2.00;;;;;;;;;;4941446;28;20004;-67
2023/06/27 10:59:45;;;;;;;7.03;2.00;;;;;;;;;;4941415;28;20961;-66
2023/06/27 11:02:13;;;;;;;9.10;1.65;;;;;;;;;;4920724;28;20030;-67
2023/06/27 11:04:42;;;;;;;7.47;2.10;;;;;;;;;;4939953;28;20074;-65
2023/06/27 11:07:08;;;;;;;7.38;1.92;;;;;;;;;;4941478;28;20027;-66
2023/06/27 11:09:35;;;;;;;8.32;1.90;;;;;;;;;;4938769;28;20043;-64
2023/06/27 11:12:17;;;;;;;5.72;1.95;;;;;;;;;;4939811;28;20042;-66
2023/06/27 11:14:46;;;;;;;7.47;1.80;;;;;;;;;;4912506;28;21288;-66
2023/06/27 11:17:12;;;;;;;10.90;1.80;;;;;;;;;;4939337;28;20039;-66
2023/06/27 11:19:43;;;;;;;9.43;1.80;;;;;;;;;;4916775;28;20045;-63
2023/06/27 11:22:11;;;;;;;10.95;2.00;;;;;;;;;;4898331;28;20089;-65
2023/06/27 11:24:38;;;;;;;6.95;1.60;;;;;;;;;;4939089;28;20027;-65
2023/06/27 11:27:07;;;;;;;6.00;1.40;;;;;;;;;;4923456;28;20073;-64
2023/06/27 11:29:33;;;;;;;8.27;2.00;;;;;;;;;;4921655;28;20049;-65
2023/06/27 11:31:59;;;;;;;9.40;1.75;;;;;;;;;;4940501;28;20036;-70
2023/06/27 11:34:24;;;;;;;9.48;1.80;;;;;;;;;;4940656;28;20038;-66
2023/06/27 11:36:52;;;;;;;7.80;1.92;;;;;;;;;;4940712;28;20771;-64
2023/06/27 11:39:17;;;;;;;8.45;2.05;;;;;;;;;;4940779;28;20042;-66
2023/06/27 11:41:43;;;;;;;7.30;1.95;;;;;;;;;;4937911;28;20063;-66
2023/06/27 11:44:12;;;;;;;4.03;1.45;;;;;;;;;;4923643;28;20038;-67
2023/06/27 11:47:09;;;;;;;7.90;1.70;;;;;;;;;;4921220;28;20043;-67
2023/06/27 11:49:35;;;;;;;10.18;1.75;;;;;;;;;;4923356;28;20107;-67
2023/06/27 11:52:00;;;;;;;7.03;1.83;;;;;;;;;;4941326;28;20891;-68
2023/06/27 11:54:25;;;;;;;7.85;1.83;;;;;;;;;;4941243;28;20063;-70
2023/06/27 11:56:51;;;;;;;12.38;2.30;;;;;;;;;;4941930;28;20122;-69
2023/06/27 11:59:16;;;;;;;7.38;1.75;;;;;;;;;;4921456;28;20222;-68
2023/06/27 12:01:42;;;;;;;7.85;1.85;;;;;;;;;;4939146;28;20069;-68
2023/06/27 12:04:12;;;;;;;8.13;1.50;;;;;;;;;;4940952;28;20085;-67
2023/06/27 12:06:37;;;;;;;5.70;1.65;;;;;;;;;;4916845;28;20039;-66
2023/06/27 12:09:06;;;;;;;9.45;1.90;;;;;;;;;;4919213;28;20202;-67
2023/06/27 12:11:36;;;;;;;7.55;2.10;;;;;;;;;;4940045;28;20634;-69
2023/06/27 12:14:04;;;;;;;5.85;1.67;;;;;;;;;;4916394;28;20079;-68
2023/06/27 12:16:32;;;;;;;5.30;1.73;;;;;;;;;;4922049;28;20066;-67
2023/06/27 12:19:03;;;;;;;7.68;1.83;;;;;;;;;;4939101;28;20073;-66
2023/06/27 12:21:29;;;;;;;7.65;1.65;;;;;;;;;;4940242;28;20035;-68
2023/06/27 12:23:54;;;;;;;12.88;2.30;;;;;;;;;;4940584;28;20088;-69
2023/06/27 12:26:19;;;;;;;9.95;2.45;;;;;;;;;;4937368;28;20034;-69
2023/06/27 12:28:57;;;;;;;8.23;2.17;;;;;;;;;;4942226;28;20092;-66
2023/06/27 12:31:22;;;;;;;7.85;2.03;;;;;;;;;;4937121;28;20081;-66
2023/06/27 12:33:47;;;;;;;8.60;2.15;;;;;;;;;;4939165;28;20034;-66
2023/06/27 12:36:14;;;;;;;6.22;1.75;;;;;;;;;;4918610;28;20042;-67
2023/06/27 12:38:40;;;;;;;9.93;2.00;;;;;;;;;;4937077;28;20322;-66
2023/06/27 12:41:05;;;;;;;7.65;1.98;;;;;;;;;;4937376;28;20526;-66
2023/06/27 12:43:30;;;;;;;9.48;2.30;;;;;;;;;;4938408;28;20125;-67
2023/06/27 12:46:02;;;;;;;10.77;2.40;;;;;;;;;;4936681;28;20411;-67
2023/06/27 12:48:27;;;;;;;9.30;1.95;;;;;;;;;;4915832;28;20254;-67
2023/06/27 12:50:53;;;;;;;9.18;2.15;;;;;;;;;;4917225;28;20045;-67
2023/06/27 12:53:18;;;;;;;6.60;1.70;;;;;;;;;;4919567;28;20845;-67
2023/06/27 12:55:43;;;;;;;7.85;1.77;;;;;;;;;;4937658;28;20038;-67
2023/06/27 12:58:09;;;;;;;6.68;1.90;;;;;;;;;;4917488;28;20565;-66
2023/06/27 13:00:37;;;;;;;7.60;1.85;;;;;;;;;;4937848;28;20261;-66
2023/06/27 13:03:06;;;;;;;6.68;1.58;;;;;;;;;;4912295;28;20090;-68
2023/06/27 13:05:31;;;;;;;4.20;1.20;;;;;;;;;;4937687;28;20042;-68
2023/06/27 13:07:57;;;;;;;6.72;1.70;;;;;;;;;;4936146;28;20167;-68
2023/06/27 13:10:27;;;;;;;5.88;1.60;;;;;;;;;;4935885;28;20124;-68
2023/06/27 13:12:54;;;;;;;7.15;1.90;;;;;;;;;;4938787;28;20035;-67
2023/06/27 13:15:19;;;;;;;7.18;1.60;;;;;;;;;;4939400;28;20042;-69
2023/06/27 13:17:46;;;;;;;5.32;1.70;;;;;;;;;;4937222;28;20089;-70
2023/06/27 13:20:12;;;;;;;7.22;1.80;;;;;;;;;;4938962;28;20039;-69
2023/06/27 13:22:39;;;;;;;8.60;1.45;;;;;;;;;;4920877;28;20042;-67
2023/06/27 13:25:04;;;;;;;5.22;1.33;;;;;;;;;;4934276;28;20359;-70
2023/06/27 13:27:31;;;;;;;5.75;1.52;;;;;;;;;;4933633;28;20569;-70
2023/06/27 13:29:57;;;;;;;5.70;1.58;;;;;;;;;;4938598;28;20488;-68
2023/06/27 13:32:23;;;;;;;6.15;1.40;;;;;;;;;;4923984;28;20098;-69
2023/06/27 13:34:48;;;;;;;9.32;1.55;;;;;;;;;;4917408;28;20463;-69
2023/06/27 13:37:16;;;;;;;6.88;2.15;;;;;;;;;;4932455;28;20089;-66
2023/06/27 13:39:42;;;;;;;9.13;1.60;;;;;;;;;;4937095;28;20075;-64
2023/06/27 13:42:07;;;;;;;11.77;1.95;;;;;;;;;;4924148;28;20099;-66
2023/06/27 13:44:33;;;;;;;9.88;1.60;;;;;;;;;;4936286;28;20030;-65
2023/06/27 13:46:58;;;;;;;6.78;1.70;;;;;;;;;;4936613;28;20150;-65
2023/06/27 13:49:27;;;;;;;6.80;1.70;;;;;;;;;;4932358;28;20105;-65
2023/06/27 13:51:52;;;;;;;6.15;1.92;;;;;;;;;;4936431;28;20039;-66
2023/06/27 13:54:17;;;;;;;7.05;1.65;;;;;;;;;;4938423;28;20039;-67
2023/06/27 13:56:45;;;;;;;9.25;2.00;;;;;;;;;;4929672;28;20096;-66
2023/06/27 13:59:10;;;;;;;8.93;1.98;;;;;;;;;;4937440;28;20127;-65
2023/06/27 14:01:36;;;;;;;7.00;1.70;;;;;;;;;;4936271;28;20039;-67
2023/06/27 14:04:03;;;;;;;8.80;1.88;;;;;;;;;;4940657;28;20042;-66
2023/06/27 14:06:29;;;;;;;7.07;2.05;;;;;;;;;;4942793;28;20745;-65
2023/06/27 14:08:54;;;;;;;9.05;2.30;;;;;;;;;;4919198;28;20222;-66
2023/06/27 14:11:20;;;;;;;9.13;1.85;;;;;;;;;;4928027;28;20155;-66
2023/06/27 14:13:45;;;;;;;9.77;2.00;;;;;;;;;;4919747;28;20106;-66
2023/06/27 14:16:11;;;;;;;10.60;1.80;;;;;;;;;;4942341;28;20235;-67
2023/06/27 14:18:37;;;;;;;10.68;2.00;;;;;;;;;;4941990;28;20050;-68
2023/06/27 14:21:08;;;;;;;9.05;2.20;;;;;;;;;;4940385;28;21871;-67
2023/06/27 14:23:36;;;;;;;9.75;1.95;;;;;;;;;;4943146;28;20039;-66
2023/06/27 14:26:04;;;;;;;6.50;1.90;;;;;;;;;;4942315;28;20043;-66
2023/06/27 14:28:30;;;;;;;9.32;2.03;;;;;;;;;;4940204;28;20105;-67
2023/06/27 14:30:56;;;;;;;9.70;2.42;;;;;;;;;;4942265;28;20042;-67
2023/06/27 14:33:21;;;;;;;9.80;2.10;;;;;;;;;;4940707;28;20117;-67
2023/06/27 14:35:47;;;;;;;9.68;1.85;;;;;;;;;;4919562;28;20052;-66
2023/06/27 14:38:13;;;;;;;6.90;1.80;;;;;;;;;;4941778;28;20624;-67